Time;durP1;ratioP1;P1;durP2;ratioP2;P2;SDS_P1;SDS_P2;PMS_P1;PMS_P2;Temp;Humidity;BMP_temperature;BMP_pressure;BME280_temperature;BME280_humidity;BME280_pressure;Samples;Min_cycle;Max_cycle;Signal;HPM_P1;HPM_P2
2024/01/20 00:02:15;;;;;;;8.10;1.63;;;1.40;99.90;;;;;;5079706;28;20051;-60
2024/01/20 00:04:41;;;;;;;3.70;1.08;;;1.40;99.90;;;;;;5078455;28;20097;-60
2024/01/20 00:07:09;;;;;;;9.88;2.05;;;1.40;99.90;;;;;;5081643;28;20039;-56
2024/01/20 00:09:35;;;;;;;0.88;0.60;;;1.40;99.90;;;;;;5082582;28;20429;-51
2024/01/20 00:12:01;;;;;;;4.82;1.67;;;1.30;99.90;;;;;;5078242;28;20118;-56
2024/01/20 00:14:27;;;;;;;14.10;2.33;;;1.20;99.90;;;;;;5078213;28;20048;-60
2024/01/20 00:16:54;;;;;;;10.65;1.90;;;1.20;99.90;;;;;;5081893;28;20063;-59
2024/01/20 00:19:25;;;;;;;11.27;2.13;;;1.10;99.90;;;;;;5077655;28;20352;-53
2024/01/20 00:21:51;;;;;;;1.67;1.05;;;1.10;99.90;;;;;;5076788;28;20036;-60
2024/01/20 00:24:16;;;;;;;8.73;2.58;;;1.10;99.90;;;;;;5075322;28;20102;-57
2024/01/20 00:26:42;;;;;;;10.48;2.35;;;1.10;99.90;;;;;;5082177;28;20135;-60
2024/01/20 00:29:08;;;;;;;6.07;2.22;;;1.20;99.90;;;;;;5080419;28;20048;-54
2024/01/20 00:31:34;;;;;;;10.02;2.50;;;1.10;99.90;;;;;;5080718;28;20063;-58
2024/01/20 00:33:59;;;;;;;23.08;3.22;;;1.10;99.90;;;;;;5080758;28;20471;-53
2024/01/20 00:36:25;;;;;;;9.50;2.65;;;1.10;99.90;;;;;;5080956;28;20548;-58
2024/01/20 00:38:52;;;;;;;8.60;2.72;;;1.10;99.90;;;;;;5079874;28;20090;-62
2024/01/20 00:41:18;;;;;;;6.95;2.40;;;1.10;99.90;;;;;;5081001;28;20044;-58
2024/01/20 00:43:44;;;;;;;11.23;2.47;;;1.20;99.90;;;;;;5081560;28;20121;-58
2024/01/20 00:46:09;;;;;;;11.18;2.78;;;1.20;99.90;;;;;;5081319;28;20079;-59
2024/01/20 00:48:35;;;;;;;14.23;3.53;;;1.20;99.90;;;;;;5079316;28;20051;-57
2024/01/20 00:51:01;;;;;;;16.38;3.22;;;1.20;99.90;;;;;;5081750;28;20079;-56
2024/01/20 00:53:26;;;;;;;1.45;1.35;;;1.20;99.90;;;;;;5079283;28;20039;-60
2024/01/20 00:55:52;;;;;;;14.20;5.22;;;1.20;99.90;;;;;;5080361;28;20402;-52
2024/01/20 00:58:18;;;;;;;9.40;2.90;;;1.20;99.90;;;;;;5068907;28;20445;-58
2024/01/20 01:00:44;;;;;;;13.52;2.83;;;1.20;99.90;;;;;;5080874;28;20040;-56
2024/01/20 01:03:09;;;;;;;6.60;2.60;;;1.20;99.90;;;;;;5077181;28;20373;-57
2024/01/20 01:05:35;;;;;;;8.43;3.25;;;1.20;99.90;;;;;;5078110;28;20113;-57
2024/01/20 01:08:01;;;;;;;13.82;3.00;;;1.20;99.90;;;;;;5081882;28;20394;-52
2024/01/20 01:10:27;;;;;;;12.13;2.67;;;1.20;99.90;;;;;;5080683;28;20119;-62
2024/01/20 01:12:53;;;;;;;5.50;2.72;;;1.20;99.90;;;;;;5079109;28;20474;-63
2024/01/20 01:15:19;;;;;;;7.65;2.55;;;1.20;99.90;;;;;;5078303;28;20058;-62
2024/01/20 01:17:44;;;;;;;6.75;2.90;;;1.20;99.90;;;;;;5079938;28;20048;-60
2024/01/20 01:20:10;;;;;;;16.58;3.67;;;1.30;99.90;;;;;;5077259;28;20085;-58
2024/01/20 01:22:36;;;;;;;8.63;2.97;;;1.20;99.90;;;;;;5081403;28;20079;-50
2024/01/20 01:25:02;;;;;;;11.02;2.65;;;1.30;99.90;;;;;;5078571;28;20090;-55
2024/01/20 01:27:28;;;;;;;6.78;2.33;;;1.30;99.90;;;;;;5080045;28;20044;-59
2024/01/20 01:29:54;;;;;;;9.07;1.38;;;1.30;99.90;;;;;;5081064;28;20055;-63
2024/01/20 01:32:20;;;;;;;7.93;2.38;;;1.40;99.90;;;;;;5085369;28;20048;-48
2024/01/20 01:34:45;;;;;;;7.85;2.58;;;1.40;99.90;;;;;;5084251;28;20401;-57
2024/01/20 01:37:11;;;;;;;8.38;2.72;;;1.40;99.90;;;;;;5084171;28;20087;-59
2024/01/20 01:39:37;;;;;;;6.72;2.28;;;1.40;99.90;;;;;;5081324;28;20040;-59
2024/01/20 01:42:03;;;;;;;12.50;3.25;;;1.40;99.90;;;;;;5084091;28;20047;-51
2024/01/20 01:44:29;;;;;;;9.40;3.20;;;1.40;99.90;;;;;;5082834;28;20529;-61
2024/01/20 01:46:55;;;;;;;3.28;2.03;;;1.40;99.90;;;;;;5083694;28;20323;-50
2024/01/20 01:49:22;;;;;;;3.85;1.35;;;1.40;99.90;;;;;;5082026;28;20097;-50
2024/01/20 01:51:50;;;;;;;8.52;2.60;;;1.40;99.90;;;;;;5086412;28;20185;-51
2024/01/20 01:54:17;;;;;;;10.70;3.35;;;1.40;99.90;;;;;;5081453;28;20036;-61
2024/01/20 01:56:46;;;;;;;3.78;2.10;;;1.40;99.90;;;;;;5085317;28;20048;-53
2024/01/20 01:59:12;;;;;;;4.22;2.20;;;1.40;99.90;;;;;;5069415;28;20648;-49
2024/01/20 02:01:38;;;;;;;24.52;4.30;;;1.30;99.90;;;;;;5078628;28;20050;-61
2024/01/20 02:04:05;;;;;;;13.85;2.35;;;1.40;99.90;;;;;;5083157;28;20032;-48
2024/01/20 02:06:31;;;;;;;9.45;3.58;;;1.40;99.90;;;;;;5079403;28;20799;-51
2024/01/20 02:08:58;;;;;;;6.38;2.90;;;1.30;99.90;;;;;;5074920;28;20052;-58
2024/01/20 02:11:31;;;;;;;4.13;1.63;;;1.30;99.90;;;;;;5084307;28;20105;-60
2024/01/20 02:13:58;;;;;;;5.22;1.77;;;1.30;99.90;;;;;;5083983;28;20411;-55
2024/01/20 02:16:23;;;;;;;9.77;3.50;;;1.30;99.90;;;;;;5080800;28;20122;-61
2024/01/20 02:18:49;;;;;;;9.68;3.20;;;1.40;99.90;;;;;;5084767;28;20043;-50
2024/01/20 02:21:15;;;;;;;8.07;3.33;;;1.30;99.90;;;;;;5085190;28;20036;-52
2024/01/20 02:23:42;;;;;;;4.85;2.25;;;1.20;99.90;;;;;;5084070;28;20040;-60
2024/01/20 02:26:07;;;;;;;8.25;3.90;;;1.40;99.90;;;;;;5083773;28;20059;-53
2024/01/20 02:28:33;;;;;;;5.95;3.22;;;1.30;99.90;;;;;;5072188;28;20048;-56
2024/01/20 02:30:59;;;;;;;9.60;3.45;;;1.30;99.90;;;;;;5084518;28;20044;-59
2024/01/20 02:33:25;;;;;;;6.22;3.40;;;1.30;99.90;;;;;;5083967;28;20097;-58
2024/01/20 02:35:50;;;;;;;12.63;3.78;;;1.30;99.90;;;;;;5083550;28;20612;-58
2024/01/20 02:38:16;;;;;;;9.27;4.57;;;1.20;99.90;;;;;;5083512;28;20067;-58
2024/01/20 02:40:42;;;;;;;7.07;2.78;;;1.30;99.90;;;;;;5082860;28;20046;-54
2024/01/20 02:43:08;;;;;;;6.60;2.67;;;1.30;99.90;;;;;;5084825;28;20048;-59
2024/01/20 02:45:33;;;;;;;9.95;4.40;;;1.20;99.90;;;;;;5080726;28;20100;-51
2024/01/20 02:47:59;;;;;;;16.70;4.30;;;1.20;99.90;;;;;;5085454;28;20097;-54
2024/01/20 02:50:25;;;;;;;17.75;5.40;;;1.20;99.90;;;;;;5080462;28;20292;-51
2024/01/20 02:52:52;;;;;;;7.35;3.55;;;1.10;99.90;;;;;;5085086;28;20579;-60
2024/01/20 02:55:18;;;;;;;14.43;4.78;;;1.10;99.90;;;;;;5079967;28;20067;-53
2024/01/20 02:57:43;;;;;;;14.35;5.05;;;1.20;99.90;;;;;;5084405;28;20555;-56
2024/01/20 03:00:12;;;;;;;16.58;4.10;;;1.10;99.90;;;;;;5083310;28;20036;-58
2024/01/20 03:02:38;;;;;;;13.63;4.95;;;1.20;99.90;;;;;;5082671;28;20044;-62
2024/01/20 03:05:03;;;;;;;10.60;4.47;;;1.10;99.90;;;;;;5082201;28;20272;-54
2024/01/20 03:07:29;;;;;;;16.88;5.22;;;1.10;99.90;;;;;;5079576;28;20059;-56
2024/01/20 03:09:55;;;;;;;13.45;4.90;;;1.10;99.90;;;;;;5083144;28;20066;-59
2024/01/20 03:12:21;;;;;;;7.43;5.18;;;1.00;99.90;;;;;;5082420;28;20403;-54
2024/01/20 03:14:46;;;;;;;10.43;4.70;;;1.00;99.90;;;;;;5084403;28;20036;-59
2024/01/20 03:17:12;;;;;;;7.72;4.40;;;0.90;99.90;;;;;;5082997;28;20619;-56
2024/01/20 03:19:38;;;;;;;7.10;4.15;;;0.70;99.90;;;;;;5082856;28;20289;-56
2024/01/20 03:22:04;;;;;;;14.88;5.53;;;0.70;99.90;;;;;;5084908;28;20379;-61
2024/01/20 03:24:29;;;;;;;18.65;5.53;;;0.70;99.90;;;;;;5081920;28;20543;-60
2024/01/20 03:26:56;;;;;;;8.20;5.38;;;0.60;99.90;;;;;;5083169;28;20531;-60
2024/01/20 03:29:22;;;;;;;13.70;5.57;;;0.60;99.90;;;;;;5079610;28;20086;-53
2024/01/20 03:31:47;;;;;;;13.75;5.82;;;0.60;99.90;;;;;;5083400;28;20079;-53
2024/01/20 03:34:13;;;;;;;10.02;5.00;;;0.60;99.90;;;;;;5080715;28;20090;-57
2024/01/20 03:36:39;;;;;;;7.97;5.13;;;0.50;99.90;;;;;;5083255;28;20050;-58
2024/01/20 03:39:05;;;;;;;12.93;6.22;;;0.50;99.90;;;;;;5082289;28;20341;-57
2024/01/20 03:41:31;;;;;;;11.68;5.97;;;0.50;99.90;;;;;;5082371;28;20040;-55
2024/01/20 03:43:57;;;;;;;22.00;7.32;;;0.50;99.90;;;;;;5084039;28;20596;-49
2024/01/20 03:46:23;;;;;;;10.55;5.72;;;0.40;99.90;;;;;;5072934;28;20149;-59
2024/01/20 03:48:49;;;;;;;12.15;6.68;;;0.40;99.90;;;;;;5082587;28;20491;-61
2024/01/20 03:51:15;;;;;;;18.55;7.35;;;0.60;99.90;;;;;;5074583;28;20040;-60
2024/01/20 03:53:41;;;;;;;9.30;4.95;;;0.50;99.90;;;;;;5065287;28;20435;-53
2024/01/20 03:56:07;;;;;;;15.02;6.93;;;0.50;99.90;;;;;;5076097;28;20059;-57
2024/01/20 03:58:32;;;;;;;13.27;6.15;;;0.60;99.90;;;;;;5083063;28;20042;-57
2024/01/20 04:00:58;;;;;;;13.15;6.88;;;0.60;99.90;;;;;;5082241;28;20507;-56
2024/01/20 04:03:24;;;;;;;9.90;5.72;;;0.60;99.90;;;;;;5081499;28;20079;-62
2024/01/20 04:05:49;;;;;;;12.02;6.30;;;0.60;99.90;;;;;;5078946;28;20054;-59
2024/01/20 04:08:16;;;;;;;15.07;6.85;;;0.60;99.90;;;;;;5081962;28;20146;-54
2024/01/20 04:10:42;;;;;;;14.35;6.50;;;0.60;99.90;;;;;;5081820;28;20065;-58
2024/01/20 04:13:08;;;;;;;15.15;7.78;;;0.60;99.90;;;;;;5079802;28;20047;-59
2024/01/20 04:15:35;;;;;;;20.30;8.77;;;0.60;99.90;;;;;;5082016;28;20104;-53
2024/01/20 04:18:01;;;;;;;26.25;8.27;;;0.60;99.90;;;;;;5064922;28;20067;-53
2024/01/20 04:20:26;;;;;;;13.55;7.45;;;0.50;99.90;;;;;;5081214;28;20036;-62
2024/01/20 04:22:52;;;;;;;24.13;9.68;;;0.50;99.90;;;;;;5081514;28;20056;-59
2024/01/20 04:25:18;;;;;;;9.23;3.35;;;0.50;99.90;;;;;;5081285;28;20507;-57
2024/01/20 04:27:44;;;;;;;18.05;9.35;;;0.50;99.90;;;;;;5081517;28;20048;-56
2024/01/20 04:30:12;;;;;;;14.68;8.30;;;0.50;99.90;;;;;;5078634;28;20046;-57
2024/01/20 04:32:37;;;;;;;17.20;7.63;;;0.40;99.90;;;;;;5082159;28;20044;-52
2024/01/20 04:35:05;;;;;;;26.88;8.85;;;0.30;99.90;;;;;;5081198;28;20442;-54
2024/01/20 04:37:31;;;;;;;16.38;8.93;;;0.20;99.90;;;;;;5082235;28;20127;-58
2024/01/20 04:39:57;;;;;;;20.38;8.80;;;0.20;99.90;;;;;;5080319;28;20165;-55
2024/01/20 04:42:23;;;;;;;22.30;10.73;;;0.10;99.90;;;;;;5079544;28;20139;-62
2024/01/20 04:44:48;;;;;;;15.63;9.60;;;0.00;99.90;;;;;;5077693;28;20048;-60
2024/01/20 04:47:14;;;;;;;19.50;8.95;;;0.00;99.90;;;;;;5081067;28;20567;-51
2024/01/20 04:49:40;;;;;;;20.85;8.95;;;0.00;99.90;;;;;;5080291;28;20048;-57
2024/01/20 04:52:05;;;;;;;18.55;9.07;;;-0.10;99.90;;;;;;5080355;28;20042;-55
2024/01/20 04:54:31;;;;;;;19.98;9.30;;;-0.10;99.90;;;;;;5082299;28;20533;-52
2024/01/20 04:56:57;;;;;;;16.20;8.68;;;-0.10;99.90;;;;;;5078574;28;20411;-60
2024/01/20 04:59:24;;;;;;;17.00;9.50;;;-0.10;99.90;;;;;;5056269;28;20052;-63
2024/01/20 05:01:50;;;;;;;17.48;8.50;;;-0.10;99.90;;;;;;5080868;28;20118;-52
2024/01/20 05:04:16;;;;;;;17.88;10.27;;;-0.20;99.90;;;;;;5080346;28;20481;-54
2024/01/20 05:06:45;;;;;;;10.63;6.95;;;-0.10;99.90;;;;;;5081892;28;20044;-51
2024/01/20 05:09:15;;;;;;;23.83;11.85;;;-0.10;99.90;;;;;;5079555;28;20048;-59
2024/01/20 05:11:41;;;;;;;23.67;8.90;;;-0.10;99.90;;;;;;5081284;28;20039;-46
2024/01/20 05:14:07;;;;;;;26.35;8.63;;;-0.10;99.90;;;;;;5080234;28;20048;-61
2024/01/20 05:16:33;;;;;;;13.10;6.75;;;-0.20;99.90;;;;;;5081181;28;20044;-52
2024/01/20 05:18:59;;;;;;;17.83;9.32;;;-0.20;99.90;;;;;;5082264;28;20040;-58
2024/01/20 05:21:25;;;;;;;24.52;11.00;;;-0.20;99.90;;;;;;5078654;28;20100;-61
2024/01/20 05:23:51;;;;;;;18.92;11.32;;;-0.20;99.90;;;;;;5081069;28;20036;-47
2024/01/20 05:26:17;;;;;;;20.75;10.88;;;-0.10;99.90;;;;;;5075441;28;20063;-52
2024/01/20 05:28:43;;;;;;;25.63;12.18;;;-0.20;99.90;;;;;;5080817;28;20101;-61
2024/01/20 05:31:09;;;;;;;24.92;10.60;;;-0.20;99.90;;;;;;5081133;28;20055;-55
2024/01/20 05:33:35;;;;;;;25.55;10.63;;;-0.30;99.90;;;;;;5079469;28;20044;-52
2024/01/20 05:36:01;;;;;;;19.17;11.15;;;-0.20;99.90;;;;;;5082005;28;20059;-59
2024/01/20 05:38:26;;;;;;;14.85;7.35;;;-0.30;99.90;;;;;;5078551;28;20113;-58
2024/01/20 05:40:52;;;;;;;21.80;11.25;;;-0.30;99.90;;;;;;5082171;28;20237;-61
2024/01/20 05:43:18;;;;;;;15.52;8.75;;;-0.20;99.90;;;;;;5079218;28;20044;-55
2024/01/20 05:45:43;;;;;;;22.52;10.68;;;-0.20;99.90;;;;;;5081990;28;20044;-55
2024/01/20 05:48:09;;;;;;;25.05;11.15;;;-0.20;99.90;;;;;;5076736;28;20088;-52
2024/01/20 05:50:35;;;;;;;18.65;8.57;;;-0.20;99.90;;;;;;5081861;28;20506;-58
2024/01/20 05:53:00;;;;;;;25.65;13.48;;;-0.20;99.90;;;;;;5079090;28;20402;-59
2024/01/20 05:55:26;;;;;;;14.55;8.05;;;-0.20;99.90;;;;;;5081238;28;20052;-55
2024/01/20 05:57:53;;;;;;;22.77;11.13;;;-0.20;99.90;;;;;;5077209;28;20557;-59
2024/01/20 06:00:20;;;;;;;22.33;8.32;;;-0.30;99.90;;;;;;5079824;28;20080;-59
2024/01/20 06:02:46;;;;;;;19.13;9.35;;;-0.30;99.90;;;;;;5079667;28;20052;-60
2024/01/20 06:05:12;;;;;;;25.48;12.32;;;-0.30;99.90;;;;;;5079910;28;20036;-54
2024/01/20 06:07:38;;;;;;;17.42;10.65;;;-0.40;99.90;;;;;;5080121;28;20239;-52
2024/01/20 06:10:04;;;;;;;18.83;8.30;;;-0.40;99.90;;;;;;5079466;28;20079;-60
2024/01/20 06:12:30;;;;;;;20.23;10.02;;;-0.40;99.90;;;;;;5080943;28;20130;-61
2024/01/20 06:14:55;;;;;;;22.83;12.75;;;-0.50;99.90;;;;;;5080845;28;20032;-50
2024/01/20 06:17:21;;;;;;;23.67;11.77;;;-0.40;99.90;;;;;;5084243;28;20059;-58
2024/01/20 06:19:48;;;;;;;23.58;11.82;;;-0.40;99.90;;;;;;5085422;28;20043;-57
2024/01/20 06:22:13;;;;;;;21.77;11.23;;;-0.40;99.90;;;;;;5083942;28;20044;-53
2024/01/20 06:24:39;;;;;;;27.30;13.15;;;-0.40;99.90;;;;;;5083387;28;20051;-57
2024/01/20 06:27:05;;;;;;;23.30;10.80;;;-0.50;99.90;;;;;;5083925;28;20145;-54
2024/01/20 06:29:30;;;;;;;33.75;13.85;;;-0.50;99.90;;;;;;5084950;28;20695;-60
2024/01/20 06:31:56;;;;;;;16.83;9.10;;;-0.50;99.90;;;;;;5084759;28;20345;-45
2024/01/20 06:34:22;;;;;;;30.80;14.60;;;-0.50;99.90;;;;;;5080520;28;20048;-51
2024/01/20 06:36:47;;;;;;;19.77;9.35;;;-0.50;99.90;;;;;;5083939;28;20040;-58
2024/01/20 06:39:13;;;;;;;27.17;13.13;;;-0.50;99.90;;;;;;5083327;28;20048;-60
2024/01/20 06:41:40;;;;;;;36.53;14.07;;;-0.50;99.90;;;;;;5082987;28;20050;-60
2024/01/20 06:44:07;;;;;;;30.33;13.40;;;-0.60;99.90;;;;;;5076731;28;20055;-55
2024/01/20 06:46:33;;;;;;;23.23;11.48;;;-0.60;99.90;;;;;;5078132;28;22291;-60
2024/01/20 06:48:58;;;;;;;28.80;11.63;;;-0.60;99.90;;;;;;5076270;28;20691;-60
2024/01/20 06:51:26;;;;;;;27.58;12.85;;;-0.60;99.90;;;;;;5083050;28;20066;-57
2024/01/20 06:53:57;;;;;;;34.97;13.93;;;-0.60;99.90;;;;;;5082643;28;20040;-58
2024/01/20 06:56:26;;;;;;;36.00;16.27;;;-0.70;99.90;;;;;;5076292;28;20044;-57
2024/01/20 06:58:54;;;;;;;24.70;12.48;;;-0.70;99.90;;;;;;5083108;28;20040;-56
2024/01/20 07:01:20;;;;;;;19.95;9.73;;;-0.70;99.90;;;;;;5082181;28;20051;-55
2024/01/20 07:03:46;;;;;;;32.50;14.32;;;-0.80;99.90;;;;;;5080179;28;20290;-55
2024/01/20 07:06:13;;;;;;;29.75;12.23;;;-0.80;99.90;;;;;;5083093;28;20047;-56
2024/01/20 07:08:42;;;;;;;29.08;13.43;;;-0.80;99.90;;;;;;5081514;28;20135;-58
2024/01/20 07:11:11;;;;;;;32.47;13.10;;;-0.80;99.90;;;;;;5085016;28;20039;-61
2024/01/20 07:13:37;;;;;;;32.28;14.02;;;-0.80;99.90;;;;;;5077980;28;20490;-58
2024/01/20 07:16:21;;;;;;;26.02;12.55;;;-0.80;99.90;;;;;;5082216;28;20119;-57
2024/01/20 07:18:47;;;;;;;32.38;15.32;;;-0.70;99.90;;;;;;5076853;28;20510;-62
2024/01/20 07:21:12;;;;;;;31.33;13.93;;;-0.70;99.90;;;;;;5083227;28;20046;-49
2024/01/20 07:23:39;;;;;;;31.60;14.50;;;-0.80;99.90;;;;;;5082806;28;20051;-56
2024/01/20 07:26:05;;;;;;;36.72;12.15;;;-0.80;99.90;;;;;;5081325;28;20369;-58
2024/01/20 07:28:31;;;;;;;32.88;15.32;;;-0.80;99.90;;;;;;5080621;28;20490;-57
2024/01/20 07:30:57;;;;;;;25.10;11.27;;;-0.80;99.90;;;;;;5082707;28;20127;-52
2024/01/20 07:33:23;;;;;;;36.10;12.23;;;-0.90;99.90;;;;;;5082338;28;20127;-52
2024/01/20 07:35:48;;;;;;;35.35;17.23;;;-0.80;99.90;;;;;;5073861;28;20047;-59
2024/01/20 07:38:14;;;;;;;42.95;16.58;;;-0.90;99.90;;;;;;5075125;28;20493;-58
2024/01/20 07:40:40;;;;;;;37.28;14.40;;;-0.90;99.90;;;;;;5077796;28;20369;-58
2024/01/20 07:43:07;;;;;;;29.05;12.05;;;-0.80;99.90;;;;;;5063820;28;20473;-55
2024/01/20 07:45:33;;;;;;;26.02;12.93;;;-0.80;99.90;;;;;;5082110;28;20130;-57
2024/01/20 07:47:59;;;;;;;39.95;16.35;;;-0.80;99.90;;;;;;5078771;28;20045;-57
2024/01/20 07:50:25;;;;;;;21.92;10.45;;;-0.80;99.90;;;;;;5081700;28;20036;-47
2024/01/20 07:52:51;;;;;;;35.92;14.30;;;-0.70;99.90;;;;;;5080192;28;20041;-53
2024/01/20 07:55:16;;;;;;;24.67;10.98;;;-0.70;99.90;;;;;;5080926;28;20051;-58
2024/01/20 07:57:42;;;;;;;28.48;11.13;;;-0.60;99.90;;;;;;5081718;28;20122;-52
2024/01/20 08:00:10;;;;;;;40.97;13.85;;;-0.60;99.90;;;;;;5083221;28;20032;-57
2024/01/20 08:02:37;;;;;;;28.00;13.15;;;-0.60;99.90;;;;;;5081396;28;20043;-51
2024/01/20 08:05:03;;;;;;;18.85;9.75;;;-0.60;99.90;;;;;;5082032;28;20097;-58
2024/01/20 08:07:29;;;;;;;32.15;14.10;;;-0.60;99.90;;;;;;5083414;28;20048;-54
2024/01/20 08:09:55;;;;;;;28.73;11.95;;;-0.50;99.90;;;;;;5075336;28;20040;-61
2024/01/20 08:12:21;;;;;;;22.42;9.20;;;-0.50;99.90;;;;;;5082317;28;20044;-55
2024/01/20 08:14:46;;;;;;;21.60;10.25;;;-0.40;99.90;;;;;;5050776;28;20416;-54
2024/01/20 08:17:12;;;;;;;39.20;13.45;;;-0.40;99.90;;;;;;5074950;28;20048;-59
2024/01/20 08:19:38;;;;;;;21.75;8.45;;;-0.40;99.90;;;;;;5059608;28;20136;-49
2024/01/20 08:22:05;;;;;;;15.57;7.63;;;-0.30;99.90;;;;;;5045097;28;20131;-57
2024/01/20 08:24:31;;;;;;;27.92;12.18;;;-0.20;99.90;;;;;;5077080;28;20130;-50
2024/01/20 08:26:57;;;;;;;29.33;12.48;;;-0.10;99.90;;;;;;5080867;28;20590;-60
2024/01/20 08:29:23;;;;;;;32.60;13.60;;;0.00;99.90;;;;;;5081232;28;20047;-59
2024/01/20 08:31:49;;;;;;;27.48;11.90;;;0.10;99.90;;;;;;5076112;28;20677;-60
2024/01/20 08:34:14;;;;;;;21.60;9.52;;;0.10;99.90;;;;;;5066355;28;20101;-54
2024/01/20 08:36:40;;;;;;;29.48;14.02;;;0.20;99.90;;;;;;5079324;28;20061;-51
2024/01/20 08:39:06;;;;;;;29.77;13.88;;;0.40;99.90;;;;;;5072313;28;20407;-54
2024/01/20 08:41:32;;;;;;;22.52;8.98;;;0.40;99.90;;;;;;5067925;28;20036;-52
2024/01/20 08:43:58;;;;;;;26.13;12.80;;;0.50;99.90;;;;;;5074367;28;20063;-60
2024/01/20 08:46:25;;;;;;;31.55;10.60;;;0.50;99.90;;;;;;5082184;28;20054;-54
2024/01/20 08:48:51;;;;;;;23.40;11.57;;;0.60;99.90;;;;;;5081167;28;20374;-56
2024/01/20 08:51:17;;;;;;;25.27;12.20;;;0.70;99.90;;;;;;5074956;28;20051;-51
2024/01/20 08:53:43;;;;;;;37.47;14.25;;;0.80;99.90;;;;;;5078819;28;20395;-53
2024/01/20 08:56:09;;;;;;;10.07;5.95;;;0.80;99.90;;;;;;5061379;28;20066;-56
2024/01/20 08:58:35;;;;;;;28.17;12.27;;;0.80;99.90;;;;;;5078106;28;20040;-60
2024/01/20 09:01:00;;;;;;;22.88;11.20;;;0.90;99.90;;;;;;5080934;28;20039;-60
2024/01/20 09:03:26;;;;;;;23.90;11.38;;;0.90;99.90;;;;;;5082379;28;20497;-50
2024/01/20 09:05:52;;;;;;;33.45;14.15;;;0.90;99.90;;;;;;5055861;28;20109;-62
2024/01/20 09:08:18;;;;;;;15.75;8.27;;;0.90;99.90;;;;;;5073928;28;20048;-55
2024/01/20 09:10:44;;;;;;;15.65;8.77;;;1.00;99.90;;;;;;5079491;28;20143;-52
2024/01/20 09:13:09;;;;;;;30.30;14.52;;;1.00;99.90;;;;;;5072104;28;20064;-57
2024/01/20 09:15:35;;;;;;;24.75;10.00;;;1.00;99.90;;;;;;5067277;28;20280;-54
2024/01/20 09:18:01;;;;;;;26.40;10.88;;;1.10;99.90;;;;;;5068618;28;20039;-55
2024/01/20 09:20:28;;;;;;;35.78;15.35;;;1.10;99.90;;;;;;5076070;28;20059;-59
2024/01/20 09:22:54;;;;;;;21.08;9.35;;;1.10;99.90;;;;;;5066345;28;20108;-57
2024/01/20 09:25:20;;;;;;;34.92;14.23;;;1.20;99.90;;;;;;5078820;28;20354;-51
2024/01/20 09:27:46;;;;;;;14.10;6.88;;;1.20;99.90;;;;;;5070559;28;20052;-58
2024/01/20 09:30:12;;;;;;;21.48;6.97;;;1.20;99.90;;;;;;5078588;28;20379;-60
2024/01/20 09:32:38;;;;;;;15.57;7.43;;;1.30;99.90;;;;;;5068335;28;20048;-57
2024/01/20 09:35:04;;;;;;;8.65;4.93;;;1.30;99.90;;;;;;5078195;28;20035;-58
2024/01/20 09:37:30;;;;;;;23.38;9.60;;;1.30;99.90;;;;;;5079384;28;20044;-48
2024/01/20 09:39:57;;;;;;;31.95;13.32;;;1.30;99.90;;;;;;5075678;28;20749;-57
2024/01/20 09:42:23;;;;;;;26.95;13.15;;;1.30;99.90;;;;;;5079393;28;20379;-59
2024/01/20 09:44:52;;;;;;;32.40;13.85;;;1.40;99.90;;;;;;5078272;28;20032;-56
2024/01/20 09:47:18;;;;;;;23.38;10.85;;;1.40;99.90;;;;;;5080391;28;20506;-60
2024/01/20 09:49:44;;;;;;;19.02;9.68;;;1.40;99.90;;;;;;5077965;28;20051;-60
2024/01/20 09:52:27;;;;;;;11.80;5.35;;;1.40;99.90;;;;;;5079575;28;20464;-56
2024/01/20 09:55:14;;;;;;;8.15;4.78;;;1.40;99.90;;;;;;5081367;28;20044;-57
2024/01/20 09:57:42;;;;;;;10.88;6.47;;;1.40;99.90;;;;;;5082617;28;20401;-53
2024/01/20 10:00:08;;;;;;;26.17;11.32;;;1.40;99.90;;;;;;5083753;28;20063;-57
2024/01/20 10:02:35;;;;;;;24.63;11.52;;;1.50;99.90;;;;;;5083458;28;20098;-58
2024/01/20 10:05:05;;;;;;;34.90;14.80;;;1.40;99.90;;;;;;5067328;28;21008;-51
2024/01/20 10:07:31;;;;;;;17.45;7.70;;;1.50;99.90;;;;;;5083490;28;20056;-59
2024/01/20 10:09:57;;;;;;;17.25;8.95;;;1.50;99.90;;;;;;5085603;28;20078;-60
2024/01/20 10:12:23;;;;;;;23.85;8.75;;;1.50;99.90;;;;;;5084382;28;20056;-60
2024/01/20 10:14:50;;;;;;;18.33;9.38;;;1.50;99.90;;;;;;5083394;28;20032;-58
2024/01/20 10:17:16;;;;;;;25.42;11.82;;;1.50;99.90;;;;;;5084114;28;20148;-50
2024/01/20 10:19:42;;;;;;;10.00;5.97;;;1.60;99.90;;;;;;5084100;28;20129;-54
2024/01/20 10:22:08;;;;;;;24.13;12.48;;;1.60;99.90;;;;;;5084269;28;20131;-59
2024/01/20 10:24:34;;;;;;;37.30;14.50;;;1.60;99.90;;;;;;5083791;28;21480;-57
2024/01/20 10:27:02;;;;;;;15.15;9.27;;;1.70;99.90;;;;;;5084417;28;20581;-58
2024/01/20 10:29:29;;;;;;;29.75;14.10;;;1.70;99.90;;;;;;5084410;28;20090;-53
2024/01/20 10:31:55;;;;;;;42.05;18.00;;;1.70;99.90;;;;;;5065986;28;20372;-53
2024/01/20 10:34:21;;;;;;;11.73;6.30;;;1.80;99.90;;;;;;5077632;28;20044;-59
2024/01/20 10:36:49;;;;;;;23.63;9.98;;;1.80;99.90;;;;;;5083337;28;20521;-58
2024/01/20 10:39:19;;;;;;;17.77;9.23;;;1.80;99.90;;;;;;5083523;28;20054;-61
2024/01/20 10:41:48;;;;;;;28.65;11.00;;;1.90;99.90;;;;;;5083105;28;20101;-58
2024/01/20 10:44:21;;;;;;;23.25;10.57;;;1.90;99.90;;;;;;5084486;28;20044;-50
2024/01/20 10:46:52;;;;;;;23.83;9.70;;;2.00;99.90;;;;;;5083685;28;20048;-59
2024/01/20 10:49:22;;;;;;;33.47;14.43;;;2.00;99.90;;;;;;5084662;28;20067;-58
2024/01/20 10:51:48;;;;;;;18.15;8.10;;;2.00;99.90;;;;;;5082880;28;20055;-56
2024/01/20 10:54:15;;;;;;;24.73;10.68;;;2.00;99.90;;;;;;5081252;28;20575;-56
2024/01/20 10:56:41;;;;;;;15.95;7.65;;;2.00;99.90;;;;;;5083092;28;20128;-56
2024/01/20 10:59:12;;;;;;;10.32;3.92;;;2.00;99.90;;;;;;5083051;28;20050;-59
2024/01/20 11:01:40;;;;;;;21.85;7.80;;;2.00;99.90;;;;;;5081125;28;20047;-56
2024/01/20 11:04:07;;;;;;;20.88;8.75;;;2.00;99.90;;;;;;5082057;28;20055;-56
2024/01/20 11:06:35;;;;;;;11.05;6.88;;;1.90;99.90;;;;;;5083146;28;20051;-53
2024/01/20 11:09:02;;;;;;;16.15;8.82;;;2.00;99.90;;;;;;5084287;28;20329;-56
2024/01/20 11:11:29;;;;;;;18.20;9.52;;;1.90;99.90;;;;;;5076500;28;20399;-52
2024/01/20 11:14:01;;;;;;;23.38;11.68;;;2.00;99.90;;;;;;5062382;28;20440;-57
2024/01/20 11:16:32;;;;;;;20.73;9.32;;;2.00;99.90;;;;;;5081839;28;20063;-53
2024/01/20 11:19:08;;;;;;;;;;;2.10;99.90;;;;;;5078457;28;20538;-63
2024/01/20 11:21:34;;;;;;;11.77;5.60;;;2.10;99.90;;;;;;5072853;28;19928;-57
2024/01/20 11:24:00;;;;;;;10.60;5.70;;;2.10;99.90;;;;;;5081870;28;20047;-50
2024/01/20 11:26:37;;;;;;;10.57;5.03;;;2.10;99.90;;;;;;5079479;28;20438;-62
2024/01/20 11:29:07;;;;;;;23.55;10.85;;;2.10;99.90;;;;;;5078745;28;20223;-52
2024/01/20 11:31:33;;;;;;;;;;;2.20;99.90;;;;;;5082672;28;20142;-56
2024/01/20 11:34:05;;;;;;;15.82;5.70;;;2.20;99.90;;;;;;5080644;28;19967;-54
2024/01/20 11:36:32;;;;;;;13.68;5.45;;;2.20;99.90;;;;;;5074328;28;20075;-53
2024/01/20 11:38:59;;;;;;;22.25;10.13;;;2.30;99.90;;;;;;5083261;28;20381;-55
2024/01/20 11:41:26;;;;;;;26.17;11.75;;;2.40;99.90;;;;;;5070753;28;20501;-58
2024/01/20 11:43:52;;;;;;;18.92;7.47;;;2.40;99.90;;;;;;5075523;28;20036;-60
2024/01/20 11:46:19;;;;;;;18.02;7.60;;;2.40;99.90;;;;;;5075599;28;20047;-60
2024/01/20 11:48:48;;;;;;;20.60;10.25;;;2.50;99.90;;;;;;5056957;28;20503;-62
2024/01/20 11:51:15;;;;;;;14.68;7.20;;;2.50;99.90;;;;;;5070299;28;20123;-60
2024/01/20 11:53:41;;;;;;;21.52;10.45;;;2.60;99.90;;;;;;5047854;28;20423;-60
2024/01/20 11:56:07;;;;;;;16.67;5.95;;;2.60;99.90;;;;;;5077264;28;20036;-49
2024/01/20 11:58:32;;;;;;;17.63;8.43;;;2.50;99.90;;;;;;5079401;28;20060;-58
2024/01/20 12:00:59;;;;;;;18.95;8.98;;;2.50;99.90;;;;;;5064024;28;20059;-61
2024/01/20 12:03:26;;;;;;;18.83;9.30;;;2.50;99.90;;;;;;5078139;28;20606;-50
2024/01/20 12:05:52;;;;;;;31.50;14.23;;;2.50;99.90;;;;;;5082690;28;20059;-61
2024/01/20 12:08:19;;;;;;;12.50;5.43;;;2.50;99.90;;;;;;5079059;28;20048;-58
2024/01/20 12:10:49;;;;;;;28.83;11.98;;;2.50;99.90;;;;;;5067509;28;20044;-58
2024/01/20 12:13:15;;;;;;;17.17;7.72;;;2.40;99.90;;;;;;5073654;28;20131;-49
2024/01/20 12:15:42;;;;;;;17.20;8.95;;;2.40;99.90;;;;;;5069107;28;20119;-59
2024/01/20 12:18:08;;;;;;;28.92;12.98;;;2.40;99.90;;;;;;5066902;28;20404;-56
2024/01/20 12:20:37;;;;;;;31.20;13.82;;;2.40;99.90;;;;;;5053052;28;20051;-55
2024/01/20 12:23:03;;;;;;;29.63;14.85;;;2.40;99.90;;;;;;5073552;28;20554;-60
2024/01/20 12:25:30;;;;;;;39.65;16.92;;;2.40;99.90;;;;;;5081732;28;20044;-61
2024/01/20 12:27:57;;;;;;;17.98;10.18;;;2.30;99.90;;;;;;5078602;28;20063;-58
2024/01/20 12:30:23;;;;;;;31.15;13.63;;;2.40;99.90;;;;;;5080323;28;20132;-57
2024/01/20 12:32:49;;;;;;;36.60;15.75;;;2.30;99.90;;;;;;5076115;28;20044;-58
2024/01/20 12:35:16;;;;;;;26.92;9.75;;;2.30;99.90;;;;;;5083231;28;20474;-59
2024/01/20 12:37:42;;;;;;;27.23;13.50;;;2.30;99.90;;;;;;5081201;28;20036;-52
2024/01/20 12:40:09;;;;;;;17.83;8.65;;;2.30;99.90;;;;;;5081087;28;20089;-61